createdAt,value
2018-02-20T06:15:33.396Z,2.40
2018-02-20T06:18:03.062Z,2.50
2018-02-20T06:20:46.606Z,2.40
2018-02-20T06:27:24.703Z,2.20
2018-02-20T06:29:54.470Z,2.10
2018-02-20T06:32:24.116Z,2.60
2018-02-20T06:34:53.975Z,2.60
2018-02-20T06:37:25.366Z,2.60
2018-02-20T06:43:18.515Z,2.30
2018-02-20T06:45:48.420Z,2.60
2018-02-20T06:48:17.948Z,2.10
2018-02-20T06:50:52.712Z,2.20
2018-02-20T06:53:24.271Z,2.10
2018-02-20T06:59:04.874Z,2.10
2018-02-20T07:01:41.957Z,2.00
2018-02-20T07:04:11.563Z,1.80
2018-02-20T07:06:44.581Z,1.80
2018-02-20T07:09:14.850Z,2.10
2018-02-20T07:11:49.237Z,2.30
2018-02-20T07:14:18.991Z,2.40
2018-02-20T07:59:10.985Z,1.80
2018-02-20T08:01:40.728Z,1.80
2018-02-20T08:04:10.252Z,1.70
2018-02-20T08:06:39.771Z,2.00
2018-02-20T08:09:09.361Z,2.40
2018-02-20T08:11:39.106Z,2.90
2018-02-20T08:14:08.734Z,2.90
2018-02-20T08:16:39.168Z,3.30
2018-02-20T08:19:08.628Z,3.30
2018-02-20T08:21:38.178Z,3.20
2018-02-20T08:24:07.972Z,3.30
2018-02-20T08:26:37.867Z,3.50
2018-02-20T08:29:07.540Z,3.80
2018-02-20T08:31:37.240Z,3.60
2018-02-20T08:34:06.817Z,4.00
2018-02-20T08:36:36.608Z,4.10
2018-02-20T08:39:06.054Z,4.30
2018-02-20T08:41:35.447Z,4.30
2018-02-20T08:44:05.147Z,4.40
2018-02-20T08:46:34.754Z,4.50
2018-02-20T08:49:04.537Z,4.50
2018-02-20T08:51:34.146Z,4.50
2018-02-20T08:54:04.146Z,3.80
2018-02-20T08:57:00.832Z,3.40
2018-02-20T08:59:32.559Z,3.60
2018-02-20T09:02:02.447Z,3.90
2018-02-20T09:04:32.389Z,4.40
2018-02-20T09:07:02.753Z,3.90
2018-02-20T09:09:32.920Z,3.90
2018-02-20T09:12:02.375Z,3.80
2018-02-20T09:14:31.937Z,3.40
2018-02-20T09:17:01.593Z,3.60
2018-02-20T09:19:31.710Z,3.70
2018-02-20T09:22:01.351Z,3.60
2018-02-20T09:24:30.884Z,3.70
2018-02-20T09:27:01.320Z,4.10
2018-02-20T09:29:30.923Z,4.10
2018-02-20T09:32:00.536Z,4.00
2018-02-20T09:34:29.968Z,3.90
2018-02-20T09:36:59.455Z,4.10
2018-02-20T09:39:28.878Z,4.60
2018-02-20T09:41:59.104Z,4.70
2018-02-20T09:44:28.517Z,4.70
2018-02-20T09:46:58.001Z,4.90
2018-02-20T09:49:27.454Z,4.80
2018-02-20T09:51:57.659Z,4.80
2018-02-20T09:54:27.261Z,4.80
2018-02-20T09:56:56.811Z,5.20
2018-02-20T09:59:26.381Z,5.00
2018-02-20T10:01:56.247Z,5.00
2018-02-20T10:04:26.015Z,5.40
2018-02-20T10:06:55.803Z,5.10
2018-02-20T10:09:26.334Z,4.70
2018-02-20T10:11:56.155Z,4.60
2018-02-20T10:14:25.801Z,4.60
2018-02-20T10:16:55.447Z,5.30
2018-02-20T10:19:25.219Z,5.50
2018-02-20T10:21:55.760Z,4.80
2018-02-20T10:24:26.338Z,4.20
2018-02-20T10:26:56.351Z,4.20
2018-02-20T10:29:25.800Z,3.80
2018-02-20T10:31:55.427Z,4.30
2018-02-20T10:34:25.029Z,4.90
2018-02-20T10:36:54.770Z,5.10
2018-02-20T10:39:36.112Z,5.30
2018-02-20T10:42:06.136Z,5.00
2018-02-20T10:44:35.735Z,4.80
2018-02-20T10:47:05.476Z,5.20
2018-02-20T10:49:35.349Z,6.10
2018-02-20T10:52:05.532Z,6.60
2018-02-20T10:54:34.980Z,6.60
2018-02-20T10:57:09.191Z,5.90
2018-02-20T10:59:38.817Z,5.40
2018-02-20T11:02:08.247Z,5.50
2018-02-20T11:04:37.766Z,4.80
2018-02-20T11:07:07.367Z,4.00
2018-02-20T11:09:38.408Z,5.60
2018-02-20T11:12:07.944Z,5.60
2018-02-20T11:14:37.782Z,5.70
2018-02-20T11:17:07.161Z,5.50
2018-02-20T11:19:36.562Z,5.80
2018-02-20T11:22:06.673Z,5.80
2018-02-20T11:24:36.579Z,6.10
2018-02-20T11:27:06.765Z,6.30
2018-02-20T11:29:37.290Z,6.80
2018-02-20T11:32:10.279Z,6.80
2018-02-20T11:34:40.242Z,7.20
2018-02-20T11:37:10.920Z,7.50
2018-02-20T11:39:40.827Z,7.70
2018-02-20T13:25:50.833Z,4.70
2018-02-20T13:28:39.890Z,5.30
2018-02-20T13:31:09.654Z,5.50
2018-02-20T13:33:39.450Z,5.40
2018-02-20T13:36:09.144Z,4.90
2018-02-20T13:38:38.702Z,5.00
2018-02-20T13:41:08.365Z,5.10
2018-02-20T13:43:37.821Z,5.50
2018-02-20T13:46:07.173Z,5.30
2018-02-20T13:48:36.803Z,5.30
2018-02-20T13:51:07.472Z,4.80
2018-02-20T13:53:37.119Z,4.70
2018-02-20T13:56:06.567Z,5.00
2018-02-20T13:58:36.096Z,4.90
2018-02-20T14:01:05.897Z,4.40
2018-02-20T14:03:36.155Z,4.40
2018-02-20T14:06:06.591Z,4.40
2018-02-20T14:08:36.088Z,4.70
2018-02-20T14:11:06.093Z,4.70
2018-02-20T14:13:35.431Z,4.60
2018-02-20T14:16:05.198Z,4.70
2018-02-20T14:18:34.834Z,4.90
2018-02-20T14:21:05.092Z,4.70
2018-02-20T14:23:34.969Z,4.80
2018-02-20T14:26:04.390Z,4.20
2018-02-20T14:28:34.105Z,4.10
2018-02-20T14:31:03.998Z,4.40
2018-02-20T14:33:33.526Z,5.00
2018-02-20T14:36:05.097Z,4.20
2018-02-20T14:38:35.616Z,4.60
2018-02-20T14:41:05.163Z,4.60
2018-02-20T14:43:34.697Z,4.40
2018-02-20T14:46:08.778Z,4.20
2018-02-20T15:02:43.530Z,4.80
2018-02-20T15:05:16.614Z,4.90
2018-02-20T15:07:54.178Z,4.70
2018-02-20T15:10:23.944Z,4.70
2018-02-20T15:12:53.606Z,4.20
2018-02-20T15:15:23.139Z,3.90
2018-02-20T15:17:52.697Z,3.70
2018-02-20T15:20:22.329Z,3.70
2018-02-20T15:22:51.804Z,3.70
2018-02-20T15:25:21.286Z,3.70
2018-02-20T15:27:50.754Z,4.00
2018-02-20T15:30:20.123Z,3.30
2018-02-20T15:32:49.486Z,3.30
2018-02-20T15:35:18.810Z,3.40
2018-02-20T15:37:48.285Z,2.80
2018-02-20T15:40:17.723Z,3.00
2018-02-20T15:42:47.181Z,3.30
2018-02-20T15:45:16.654Z,3.60
2018-02-20T15:47:46.527Z,3.50
2018-02-20T17:25:42.703Z,3.90
2018-02-20T17:28:12.448Z,3.50
2018-02-20T17:30:42.271Z,3.10
2018-02-20T17:33:12.259Z,3.50
2018-02-20T17:35:43.132Z,3.90
2018-02-20T17:38:13.209Z,3.80
2018-02-20T17:40:42.621Z,3.40
2018-02-20T17:43:12.236Z,2.90
2018-02-20T17:45:41.837Z,2.80
2018-02-20T17:48:12.318Z,3.30
2018-02-20T17:50:42.044Z,3.80
2018-02-20T17:53:11.522Z,3.60
2018-02-20T18:02:20.792Z,3.30
2018-02-20T18:04:50.370Z,3.30
2018-02-20T18:07:19.886Z,3.50
2018-02-20T18:09:49.662Z,3.50
2018-02-20T18:12:19.276Z,3.10
2018-02-20T18:14:48.857Z,3.10
2018-02-20T19:41:34.625Z,3.20
2018-02-20T19:44:04.237Z,3.20
2018-02-20T19:46:33.944Z,3.60
2018-02-20T19:49:04.184Z,2.60
2018-02-20T19:51:34.353Z,3.00
2018-02-20T19:54:04.174Z,3.00
2018-02-20T20:00:09.745Z,3.50
2018-02-20T20:02:39.380Z,3.50
2018-02-20T20:05:08.784Z,3.40
2018-02-20T20:07:38.203Z,3.50
2018-02-20T20:10:07.647Z,3.70
2018-02-20T20:12:37.573Z,3.80
2018-02-20T20:15:07.237Z,3.90
2018-02-20T20:17:37.165Z,3.90
2018-02-20T20:20:06.702Z,3.90
2018-02-20T20:22:36.361Z,3.70
2018-02-20T20:25:05.925Z,3.70
2018-02-20T20:27:35.615Z,3.80
2018-02-20T20:30:05.560Z,3.80
2018-02-20T20:32:35.202Z,3.90
